Time;durP1;ratioP1;P1;durP2;ratioP2;P2;SDS_P1;SDS_P2;PMS_P1;PMS_P2;Temp;Humidity;BMP_temperature;BMP_pressure;BME280_temperature;BME280_humidity;BME280_pressure;Samples;Min_cycle;Max_cycle;Signal;HPM_P1;HPM_P2
2022/03/20 00:00:53;;;;;;;12.17;5.47;;;4.10;99.90;;;;;;6308838;22;20007;-88
2022/03/20 00:03:21;;;;;;;13.43;5.33;;;4.10;99.90;;;;;;6336300;22;20048;-88
2022/03/20 00:05:49;;;;;;;15.07;6.00;;;4.10;99.90;;;;;;6304982;22;20010;-88
2022/03/20 00:08:15;;;;;;;12.17;5.83;;;4.20;99.90;;;;;;6309677;22;20404;-88
2022/03/20 00:10:49;;;;;;;15.67;5.50;;;4.10;99.90;;;;;;6309486;22;20006;-88
2022/03/20 00:13:17;;;;;;;10.37;5.67;;;4.10;99.90;;;;;;6309605;22;20003;-88
2022/03/20 00:15:44;;;;;;;10.83;5.43;;;4.10;99.90;;;;;;6308460;22;20420;-89
2022/03/20 00:18:11;;;;;;;11.37;5.80;;;4.10;99.90;;;;;;6362258;22;19987;-89
2022/03/20 00:20:39;;;;;;;13.70;6.30;;;4.10;99.90;;;;;;6318051;22;20066;-88
2022/03/20 00:23:12;;;;;;;13.07;5.70;;;4.10;99.90;;;;;;6335539;22;20029;-88
2022/03/20 00:25:39;;;;;;;13.47;6.27;;;4.10;99.90;;;;;;6307470;22;20007;-88
2022/03/20 00:28:06;;;;;;;11.70;5.87;;;4.20;99.90;;;;;;6308234;22;20014;-88
2022/03/20 00:30:32;;;;;;;13.17;5.47;;;4.10;99.90;;;;;;6306248;22;20094;-88
2022/03/20 00:32:58;;;;;;;13.53;6.03;;;4.10;99.90;;;;;;6307653;22;20338;-89
2022/03/20 00:35:24;;;;;;;17.80;6.23;;;4.20;99.90;;;;;;6305988;22;19999;-88
2022/03/20 00:37:49;;;;;;;11.60;5.67;;;4.20;99.90;;;;;;6306170;22;20021;-88
2022/03/20 00:40:15;;;;;;;13.03;6.33;;;4.10;99.90;;;;;;6308258;22;20478;-88
2022/03/20 00:42:41;;;;;;;16.03;5.70;;;4.10;99.90;;;;;;6304742;22;20006;-89
2022/03/20 00:45:07;;;;;;;13.07;6.17;;;4.20;99.90;;;;;;6306750;22;20006;-89
2022/03/20 00:47:33;;;;;;;12.70;6.07;;;4.20;99.90;;;;;;6307461;22;20085;-88
2022/03/20 00:49:58;;;;;;;14.17;6.10;;;4.10;99.90;;;;;;6334906;22;20030;-88
2022/03/20 00:52:24;;;;;;;12.87;6.07;;;4.10;99.90;;;;;;6307537;22;19998;-88
2022/03/20 00:54:50;;;;;;;12.47;5.57;;;4.30;99.90;;;;;;6307308;22;20006;-88
2022/03/20 00:57:16;;;;;;;12.77;5.70;;;4.10;99.90;;;;;;6307713;22;20333;-89
2022/03/20 00:59:42;;;;;;;14.30;6.03;;;4.10;99.90;;;;;;6307484;22;20052;-89
2022/03/20 01:02:08;;;;;;;12.50;5.67;;;4.10;99.90;;;;;;6307938;22;20007;-89
2022/03/20 01:04:38;;;;;;;12.93;5.43;;;4.10;99.90;;;;;;6307780;22;20379;-88
2022/03/20 01:07:04;;;;;;;12.03;6.13;;;4.10;99.90;;;;;;6307542;22;20002;-87
2022/03/20 01:09:30;;;;;;;12.00;6.17;;;4.10;99.90;;;;;;6307091;22;20002;-88
2022/03/20 01:11:56;;;;;;;12.23;5.60;;;4.10;99.90;;;;;;6307666;22;19994;-87
2022/03/20 01:14:22;;;;;;;13.83;6.07;;;4.10;99.90;;;;;;6306996;22;19999;-88
2022/03/20 01:16:48;;;;;;;13.03;5.77;;;4.10;99.90;;;;;;6307060;22;20003;-88
2022/03/20 01:19:15;;;;;;;14.53;5.67;;;4.10;99.90;;;;;;6307367;22;20437;-88
2022/03/20 01:21:41;;;;;;;13.03;6.17;;;4.10;99.90;;;;;;6307655;22;20389;-88
2022/03/20 01:24:08;;;;;;;13.20;5.87;;;4.10;99.90;;;;;;6307200;22;20113;-88
2022/03/20 01:26:36;;;;;;;12.77;6.33;;;4.10;99.90;;;;;;6334623;22;20006;-88
2022/03/20 01:29:05;;;;;;;12.23;5.80;;;4.10;99.90;;;;;;6307072;22;20003;-87
2022/03/20 01:31:32;;;;;;;15.80;5.20;;;4.10;99.90;;;;;;6307330;22;20517;-88
2022/03/20 01:33:58;;;;;;;11.80;5.13;;;4.10;99.90;;;;;;6334165;22;20045;-88
2022/03/20 01:36:24;;;;;;;12.63;5.77;;;4.10;99.90;;;;;;6334785;22;20002;-88
2022/03/20 01:38:50;;;;;;;16.37;6.00;;;4.20;99.90;;;;;;6307684;22;20089;-88
2022/03/20 01:41:17;;;;;;;11.73;5.47;;;4.10;99.90;;;;;;6307658;22;20050;-88
2022/03/20 01:43:54;;;;;;;13.70;5.47;;;4.10;99.90;;;;;;6306609;22;20085;-88
2022/03/20 01:46:20;;;;;;;11.10;5.27;;;4.10;99.90;;;;;;6307130;22;19995;-88
2022/03/20 01:48:45;;;;;;;14.30;5.87;;;4.10;99.90;;;;;;6307657;22;20014;-87
2022/03/20 01:51:12;;;;;;;12.97;6.00;;;4.10;99.90;;;;;;6335754;22;20011;-87
2022/03/20 01:53:38;;;;;;;12.67;5.13;;;4.10;99.90;;;;;;6308903;22;20090;-88
2022/03/20 01:56:04;;;;;;;12.07;5.90;;;4.10;99.90;;;;;;6309495;22;20002;-88
2022/03/20 01:58:32;;;;;;;15.97;6.53;;;4.10;99.90;;;;;;6336783;22;20006;-87
2022/03/20 02:00:58;;;;;;;9.87;5.40;;;4.10;99.90;;;;;;6308871;22;20433;-87
2022/03/20 02:03:24;;;;;;;16.03;5.77;;;4.10;99.90;;;;;;6336549;22;20075;-88
2022/03/20 02:05:49;;;;;;;13.07;6.20;;;4.10;99.90;;;;;;6308993;22;20451;-88
2022/03/20 02:08:16;;;;;;;13.03;5.40;;;4.10;99.90;;;;;;6309274;22;20432;-88
2022/03/20 02:10:47;;;;;;;14.83;6.87;;;4.10;99.90;;;;;;6309044;22;20348;-88
2022/03/20 02:13:12;;;;;;;11.60;5.57;;;4.10;99.90;;;;;;6310245;22;19999;-87
2022/03/20 02:15:38;;;;;;;12.87;5.80;;;4.10;99.90;;;;;;6317840;22;20025;-88
2022/03/20 02:18:07;;;;;;;13.47;6.10;;;4.10;99.90;;;;;;6322616;22;19999;-88
2022/03/20 02:20:32;;;;;;;12.90;5.67;;;4.10;99.90;;;;;;6318268;22;20029;-88
2022/03/20 02:22:58;;;;;;;13.23;5.83;;;4.10;99.90;;;;;;6309150;22;20433;-88
2022/03/20 02:25:24;;;;;;;12.47;5.80;;;4.00;99.90;;;;;;6309106;22;20445;-88
2022/03/20 02:27:50;;;;;;;11.97;5.50;;;4.10;99.90;;;;;;6309411;22;20011;-88
2022/03/20 02:30:18;;;;;;;13.60;5.57;;;4.00;99.90;;;;;;6337183;22;20059;-88
2022/03/20 02:32:46;;;;;;;11.53;5.93;;;4.10;99.90;;;;;;6337019;22;19999;-88
2022/03/20 02:35:16;;;;;;;12.67;6.30;;;4.00;99.90;;;;;;6308585;22;20010;-88
2022/03/20 02:37:47;;;;;;;12.50;6.13;;;4.10;99.90;;;;;;6337144;22;20042;-88
2022/03/20 02:40:14;;;;;;;14.03;6.57;;;4.00;99.90;;;;;;6309471;22;20029;-88
2022/03/20 02:42:45;;;;;;;11.20;5.83;;;4.00;99.90;;;;;;6309897;22;20002;-88
2022/03/20 02:45:15;;;;;;;16.07;6.07;;;4.00;99.90;;;;;;6336416;22;20461;-88
2022/03/20 02:47:43;;;;;;;15.30;5.83;;;4.00;99.90;;;;;;6336954;22;20002;-88
2022/03/20 02:50:13;;;;;;;16.63;6.50;;;4.00;99.90;;;;;;6309225;22;20075;-89
2022/03/20 02:52:43;;;;;;;18.73;6.07;;;4.00;99.90;;;;;;6336774;22;20074;-88
2022/03/20 02:55:10;;;;;;;11.93;6.20;;;4.00;99.90;;;;;;6309263;22;20003;-88
2022/03/20 02:57:36;;;;;;;13.77;6.20;;;4.00;99.90;;;;;;6310524;22;20056;-88
2022/03/20 03:00:05;;;;;;;13.07;5.20;;;3.90;99.90;;;;;;6338196;22;20007;-89
2022/03/20 03:02:39;;;;;;;13.43;6.17;;;4.00;99.90;;;;;;6311625;22;20409;-88
2022/03/20 03:05:05;;;;;;;14.63;6.17;;;4.00;99.90;;;;;;6306456;22;20081;-88
2022/03/20 03:13:01;;;;;;;13.23;6.00;;;4.00;99.90;;;;;;6336332;22;20030;-89
2022/03/20 03:15:26;;;;;;;14.80;7.20;;;3.90;99.90;;;;;;6308867;22;20006;-88
2022/03/20 03:17:56;;;;;;;16.80;6.83;;;3.90;99.90;;;;;;6308940;22;19994;-88
2022/03/20 03:20:21;;;;;;;14.13;6.07;;;3.90;99.90;;;;;;6308961;22;20066;-89
2022/03/20 03:22:48;;;;;;;16.27;6.50;;;3.90;99.90;;;;;;6310826;22;20010;-88
2022/03/20 03:25:14;;;;;;;14.07;6.67;;;3.90;99.90;;;;;;6310962;22;20013;-88
2022/03/20 03:27:39;;;;;;;15.63;6.20;;;3.90;99.90;;;;;;6310078;22;20488;-88
2022/03/20 03:30:05;;;;;;;19.20;7.93;;;3.90;99.90;;;;;;6308625;22;20092;-88
2022/03/20 03:32:31;;;;;;;11.83;6.20;;;3.90;99.90;;;;;;6308788;22;20010;-87
2022/03/20 03:37:44;;;;;;;15.03;6.27;;;3.80;99.90;;;;;;6336456;22;20072;-88
2022/03/20 03:40:10;;;;;;;13.20;5.63;;;3.80;99.90;;;;;;6336515;22;20052;-88
2022/03/20 03:42:36;;;;;;;13.00;6.83;;;3.90;99.90;;;;;;6336499;22;20618;-88
2022/03/20 03:45:03;;;;;;;16.83;7.37;;;3.80;99.90;;;;;;6337978;22;20017;-89
2022/03/20 03:47:29;;;;;;;17.37;7.17;;;3.90;99.90;;;;;;6317061;22;20033;-88
2022/03/20 03:49:55;;;;;;;17.13;7.03;;;3.90;99.90;;;;;;6315155;22;20011;-88
2022/03/20 03:52:21;;;;;;;14.27;6.30;;;3.90;99.90;;;;;;6337732;22;20429;-87
2022/03/20 03:54:47;;;;;;;14.90;7.17;;;3.90;99.90;;;;;;6308567;22;20003;-87
2022/03/20 03:57:12;;;;;;;17.20;6.67;;;3.90;99.90;;;;;;6308536;22;20029;-88
2022/03/20 03:59:38;;;;;;;16.10;7.17;;;3.90;99.90;;;;;;6309188;22;20002;-89
2022/03/20 04:02:04;;;;;;;13.87;6.07;;;3.90;99.90;;;;;;6308641;22;20437;-88
2022/03/20 04:04:30;;;;;;;13.80;6.80;;;3.90;99.90;;;;;;6332807;22;20417;-88
2022/03/20 04:06:56;;;;;;;15.37;7.03;;;3.90;99.90;;;;;;6306896;22;20581;-88
2022/03/20 04:09:22;;;;;;;17.17;7.27;;;3.90;99.90;;;;;;6308138;22;20006;-88
2022/03/20 04:11:48;;;;;;;14.73;7.03;;;3.80;99.90;;;;;;6308269;22;20003;-88
2022/03/20 04:14:14;;;;;;;15.43;6.73;;;3.80;99.90;;;;;;6335438;22;20078;-88
2022/03/20 04:16:40;;;;;;;14.93;6.80;;;3.80;99.90;;;;;;6308336;22;20007;-88
2022/03/20 04:19:05;;;;;;;15.37;7.17;;;3.80;99.90;;;;;;6308455;22;19998;-89
2022/03/20 04:21:31;;;;;;;13.67;6.63;;;3.70;99.90;;;;;;6308721;22;20051;-88
2022/03/20 04:23:56;;;;;;;13.97;7.27;;;3.70;99.90;;;;;;6307525;22;20036;-88
2022/03/20 04:26:24;;;;;;;17.73;7.53;;;3.70;99.90;;;;;;6308288;22;20090;-88
2022/03/20 04:28:52;;;;;;;15.43;7.07;;;3.70;99.90;;;;;;6308528;22;20010;-87
2022/03/20 04:31:19;;;;;;;16.33;6.70;;;3.70;99.90;;;;;;6308740;22;20013;-88
2022/03/20 04:33:48;;;;;;;16.00;7.87;;;3.70;99.90;;;;;;6307896;22;19999;-88
2022/03/20 04:36:14;;;;;;;16.37;7.70;;;3.60;99.90;;;;;;6308006;22;19999;-88
2022/03/20 04:38:40;;;;;;;16.57;7.43;;;3.70;99.90;;;;;;6334376;22;20449;-88
2022/03/20 04:41:06;;;;;;;15.60;6.63;;;3.70;99.90;;;;;;6308104;22;20003;-88
2022/03/20 04:43:32;;;;;;;21.37;6.77;;;3.70;99.90;;;;;;6335400;22;20286;-88
2022/03/20 04:45:59;;;;;;;15.27;6.80;;;3.70;99.90;;;;;;6307882;22;20524;-89
2022/03/20 04:59:21;;;;;;;15.70;7.00;;;3.70;99.90;;;;;;6335994;22;20490;-88
2022/03/20 05:01:47;;;;;;;15.27;6.00;;;3.70;99.90;;;;;;6308167;22;20003;-88
2022/03/20 05:04:16;;;;;;;15.07;6.67;;;3.70;99.90;;;;;;6335179;22;20112;-88
2022/03/20 05:06:43;;;;;;;19.23;7.20;;;3.70;99.90;;;;;;6308587;22;20006;-88
2022/03/20 05:14:37;;;;;;;17.77;7.57;;;3.70;99.90;;;;;;6335613;22;20014;-88
2022/03/20 05:17:04;;;;;;;17.00;7.47;;;3.70;99.90;;;;;;6308023;22;19999;-88
2022/03/20 05:19:33;;;;;;;18.57;7.67;;;3.70;99.90;;;;;;6307936;22;20047;-87
2022/03/20 05:21:58;;;;;;;17.37;6.80;;;3.80;99.90;;;;;;6307861;22;20241;-88
2022/03/20 05:24:24;;;;;;;18.13;7.50;;;3.80;99.90;;;;;;6307429;22;20009;-88
2022/03/20 05:26:50;;;;;;;16.80;7.50;;;3.80;99.90;;;;;;6335912;22;20003;-87
2022/03/20 05:29:15;;;;;;;15.53;7.10;;;3.90;99.90;;;;;;6335293;22;19998;-87
2022/03/20 05:31:41;;;;;;;14.87;7.60;;;3.80;99.90;;;;;;6307208;22;20003;-89
2022/03/20 05:34:06;;;;;;;17.63;7.73;;;3.80;99.90;;;;;;6307491;22;20123;-88
2022/03/20 05:36:32;;;;;;;18.53;7.83;;;3.80;99.90;;;;;;6308027;22;20018;-88
2022/03/20 06:54:35;;;;;;;18.17;7.20;;;5.30;99.90;;;;;;6381571;22;20018;-88
2022/03/20 07:08:55;;;;;;;;;;;;;;;;;;;;;
2022/03/20 07:23:48;;;;;;;19.53;8.57;;;5.80;99.90;;;;;;6383408;22;20018;-90
2022/03/20 07:30:15;;;;;;;;;;;;;;;;;;;;;
2022/03/20 07:46:08;;;;;;;18.00;8.03;;;6.50;99.90;;;;;;6225986;23;20072;-89
2022/03/20 08:06:12;;;;;;;15.73;7.87;;;7.20;99.90;;;;;;6336879;22;20017;-90
2022/03/20 08:09:15;;;;;;;17.37;8.37;;;7.40;99.90;;;;;;6214410;23;20008;-89
2022/03/20 08:15:32;;;;;;;18.10;8.57;;;7.70;99.90;;;;;;6043131;23;20094;-90
2022/03/20 08:21:10;;;;;;;18.90;8.30;;;8.00;99.90;;;;;;6367253;22;20029;-88
2022/03/20 08:24:31;;;;;;;;;;;;;;;;;;;;;
2022/03/20 08:34:36;;;;;;;17.02;7.68;;;8.60;99.90;;;;;;6192674;23;20007;-89
2022/03/20 08:42:29;;;;;;;;;;;;;;;;;;;;;
2022/03/20 08:45:52;;;;;;;15.63;8.18;;;9.00;99.90;;;;;;6375904;22;20027;-89
2022/03/20 08:48:55;;;;;;;;;;;9.00;99.90;;;;;;6219394;23;20001;-88
2022/03/20 09:07:35;;;;;;;;;;;;;;;;;;;;;
2022/03/20 10:15:43;;;;;;;10.65;6.28;;;13.70;88.10;;;;;;6378488;22;20065;-91
2022/03/20 10:22:14;;;;;;;13.05;6.30;;;13.50;87.90;;;;;;6344067;22;20003;-92
2022/03/20 12:35:55;;;;;;;11.63;4.10;;;17.40;74.70;;;;;;6281492;22;20079;31
2022/03/20 12:38:44;;;;;;;7.32;3.53;;;17.60;74.70;;;;;;6212559;23;20091;-88
2022/03/20 12:41:15;;;;;;;9.88;4.10;;;17.50;74.10;;;;;;6214477;23;20008;-88
2022/03/20 12:43:43;;;;;;;7.63;4.03;;;17.50;74.60;;;;;;6241412;23;20004;-88
2022/03/20 12:46:10;;;;;;;9.27;4.72;;;17.30;72.40;;;;;;6224389;22;20028;-88
2022/03/20 12:48:36;;;;;;;8.98;4.63;;;17.40;74.30;;;;;;6244837;22;20004;-88
2022/03/20 12:51:11;;;;;;;8.32;4.05;;;17.30;74.80;;;;;;6245853;22;20008;-88
2022/03/20 12:53:46;;;;;;;8.27;4.85;;;17.10;73.00;;;;;;6246605;22;20011;-88
2022/03/20 12:56:51;;;;;;;7.35;3.92;;;17.10;75.60;;;;;;6247277;22;20007;-89
2022/03/20 12:59:24;;;;;;;7.43;3.67;;;17.20;71.70;;;;;;6233347;22;20057;-88
2022/03/20 13:01:50;;;;;;;8.88;4.20;;;17.00;70.60;;;;;;6246552;22;20015;-88
2022/03/20 13:04:21;;;;;;;7.78;4.10;;;17.20;70.00;;;;;;6273337;22;20000;-88
2022/03/20 13:06:48;;;;;;;7.25;3.95;;;17.10;69.10;;;;;;6273522;22;19995;-88
2022/03/20 13:09:19;;;;;;;9.10;4.28;;;17.20;69.90;;;;;;6247850;22;20008;-88
2022/03/20 13:11:48;;;;;;;10.02;4.57;;;17.40;69.50;;;;;;6250386;22;20011;-88
2022/03/20 13:14:15;;;;;;;11.05;5.07;;;17.50;68.90;;;;;;6247633;22;20008;-88
2022/03/20 13:17:10;;;;;;;9.23;4.55;;;17.50;67.80;;;;;;6244497;22;20342;-88
2022/03/20 13:19:39;;;;;;;7.20;3.85;;;17.60;67.60;;;;;;6244748;22;19996;-89
2022/03/20 13:22:18;;;;;;;7.30;4.15;;;17.70;67.20;;;;;;6245918;22;20011;-88
2022/03/20 13:24:50;;;;;;;8.45;4.72;;;17.90;67.30;;;;;;6272637;22;20059;-88
2022/03/20 13:27:17;;;;;;;9.10;4.95;;;17.90;66.90;;;;;;6246600;22;20049;-88
2022/03/20 13:29:56;;;;;;;10.07;4.93;;;18.00;68.30;;;;;;6246329;22;20268;-88
2022/03/20 13:32:22;;;;;;;8.07;4.82;;;18.00;66.60;;;;;;6247059;22;20049;-89
2022/03/20 13:34:51;;;;;;;9.80;4.78;;;18.10;68.20;;;;;;6272171;22;20000;-88
2022/03/20 13:37:17;;;;;;;11.18;4.78;;;18.10;65.70;;;;;;6246107;22;20050;-89
2022/03/20 13:39:48;;;;;;;10.18;5.40;;;18.00;64.70;;;;;;6246364;22;20027;-89
2022/03/20 13:42:16;;;;;;;9.40;4.78;;;18.10;64.70;;;;;;6276446;22;20042;-88
2022/03/20 13:44:42;;;;;;;8.13;4.97;;;18.20;64.80;;;;;;6273750;22;20003;-88
2022/03/20 13:47:09;;;;;;;7.57;4.05;;;18.30;65.40;;;;;;6247367;22;20042;-88
2022/03/20 13:49:35;;;;;;;8.93;4.43;;;18.40;65.10;;;;;;6247907;22;20004;-88
2022/03/20 13:52:01;;;;;;;7.97;4.45;;;18.50;63.00;;;;;;6276253;22;20053;-89
2022/03/20 13:54:29;;;;;;;8.55;4.75;;;18.50;62.70;;;;;;6247856;22;20004;-88
2022/03/20 13:57:10;;;;;;;11.05;4.53;;;18.60;62.40;;;;;;6248091;22;20052;-89
2022/03/20 13:59:53;;;;;;;8.90;5.10;;;18.50;62.20;;;;;;6247937;22;20093;-88
2022/03/20 14:02:20;;;;;;;9.98;4.65;;;18.60;60.60;;;;;;6247895;22;20010;-88
2022/03/20 14:04:47;;;;;;;7.53;4.50;;;18.60;61.80;;;;;;6274761;22;19999;-88
2022/03/20 14:07:18;;;;;;;8.80;4.32;;;18.80;59.90;;;;;;6241363;22;20344;-89
2022/03/20 14:09:45;;;;;;;8.32;4.57;;;18.90;61.00;;;;;;6242711;22;20006;-88
2022/03/20 14:12:37;;;;;;;9.23;4.53;;;18.90;59.40;;;;;;6247510;22;20386;-89
2022/03/20 14:15:06;;;;;;;8.35;4.32;;;18.70;57.80;;;;;;6247079;22;20079;-88
2022/03/20 14:17:48;;;;;;;8.35;4.38;;;18.50;58.20;;;;;;6274512;22;19995;-88
2022/03/20 14:20:27;;;;;;;11.93;4.90;;;18.70;58.20;;;;;;6272046;22;20030;-88
2022/03/20 14:23:00;;;;;;;8.27;4.05;;;18.80;58.40;;;;;;6274563;22;20008;-89
2022/03/20 14:25:43;;;;;;;10.40;4.85;;;19.00;58.30;;;;;;6247076;22;20007;-89
2022/03/20 14:28:23;;;;;;;7.90;4.28;;;18.80;56.70;;;;;;6247055;22;20338;-89
2022/03/20 14:39:30;;;;;;;7.72;4.07;;;18.90;55.50;;;;;;6274699;22;20014;-88
2022/03/20 14:41:58;;;;;;;10.00;5.28;;;19.10;55.70;;;;;;6274936;22;20079;-89
2022/03/20 14:44:28;;;;;;;9.63;5.35;;;19.00;54.40;;;;;;6248889;22;20010;-86
2022/03/20 14:47:07;;;;;;;11.45;4.68;;;19.10;54.60;;;;;;6247607;22;20018;-88
2022/03/20 14:49:34;;;;;;;10.98;4.78;;;19.20;54.20;;;;;;6247935;22;20007;-88
2022/03/20 14:52:01;;;;;;;7.60;4.13;;;19.30;53.60;;;;;;6247952;22;20430;-89
2022/03/20 14:54:26;;;;;;;9.27;4.93;;;19.40;54.20;;;;;;6247786;22;19999;-89
2022/03/20 14:56:56;;;;;;;8.48;4.65;;;19.40;54.50;;;;;;6246954;22;20330;-89
2022/03/20 14:59:22;;;;;;;10.00;5.03;;;19.50;54.10;;;;;;6248499;22;19999;-89
2022/03/20 15:01:48;;;;;;;9.73;5.35;;;19.50;53.80;;;;;;6249274;22;20004;-89
2022/03/20 15:04:15;;;;;;;10.23;5.32;;;19.50;54.50;;;;;;6275391;22;20035;-89
2022/03/20 15:06:50;;;;;;;10.95;5.32;;;19.50;54.70;;;;;;6248723;22;20008;-88
2022/03/20 15:12:06;;;;;;;10.45;5.95;;;19.60;54.10;;;;;;6275477;22;20011;-89
2022/03/20 15:14:33;;;;;;;14.48;6.35;;;19.50;54.90;;;;;;6248427;22;20004;-88
2022/03/20 15:17:08;;;;;;;13.77;6.30;;;19.30;55.30;;;;;;6248605;22;20003;-89
2022/03/20 15:19:42;;;;;;;11.35;6.28;;;19.20;55.60;;;;;;6276678;22;20077;-88
2022/03/20 15:22:09;;;;;;;9.55;5.82;;;19.30;56.00;;;;;;6272536;22;20015;-89
2022/03/20 15:24:38;;;;;;;13.43;6.50;;;19.30;56.10;;;;;;6268557;22;20014;-89
2022/03/20 15:27:13;;;;;;;12.57;6.47;;;19.30;55.70;;;;;;6247269;22;20011;-89
2022/03/20 15:29:45;;;;;;;10.63;6.20;;;19.00;55.40;;;;;;6249131;22;20430;-88
2022/03/20 15:32:21;;;;;;;12.85;5.80;;;19.00;56.00;;;;;;6251102;22;20073;-88
2022/03/20 15:34:50;;;;;;;10.88;5.95;;;18.70;56.30;;;;;;6250877;22;20004;-88
2022/03/20 15:37:23;;;;;;;13.43;6.40;;;18.70;56.50;;;;;;6248506;22;20370;-87
2022/03/20 15:39:49;;;;;;;13.32;6.05;;;18.60;56.50;;;;;;6275434;22;20489;-88
2022/03/20 15:42:17;;;;;;;11.63;6.05;;;18.40;55.60;;;;;;6249437;22;20007;-88
2022/03/20 15:44:45;;;;;;;10.23;5.65;;;18.40;56.30;;;;;;6274452;22;20004;-88
2022/03/20 15:47:11;;;;;;;11.52;5.40;;;18.20;56.80;;;;;;6247795;22;20010;-88
2022/03/20 15:49:42;;;;;;;9.52;5.50;;;18.10;56.10;;;;;;6248031;22;20004;-88
2022/03/20 15:52:14;;;;;;;10.10;5.50;;;18.00;56.50;;;;;;6275456;22;20011;-88
2022/03/20 15:54:45;;;;;;;9.25;5.43;;;17.80;56.90;;;;;;6247515;22;20664;-88
2022/03/20 15:57:14;;;;;;;10.77;5.68;;;17.30;56.80;;;;;;6248098;22;20500;-88
2022/03/20 15:59:42;;;;;;;10.10;5.43;;;16.80;57.30;;;;;;6248023;22;20010;-88
2022/03/20 16:02:11;;;;;;;11.35;5.68;;;16.50;58.70;;;;;;6274215;22;20139;-88
2022/03/20 16:04:43;;;;;;;10.43;5.85;;;16.10;59.20;;;;;;6246811;22;20003;-87
2022/03/20 16:07:21;;;;;;;10.90;6.05;;;15.90;59.80;;;;;;6275351;22;20000;-88
2022/03/20 16:09:47;;;;;;;14.15;6.15;;;15.70;60.40;;;;;;6243262;22;20007;-88
2022/03/20 16:12:17;;;;;;;12.85;5.95;;;15.50;61.50;;;;;;6246836;22;20038;-87
2022/03/20 16:14:45;;;;;;;11.27;6.15;;;15.40;60.90;;;;;;6246722;22;20003;-88
2022/03/20 16:17:11;;;;;;;11.55;5.95;;;15.30;62.50;;;;;;6274314;22;20006;-88
2022/03/20 16:19:40;;;;;;;11.07;5.15;;;15.10;61.20;;;;;;6277924;22;20047;-87
2022/03/20 16:22:06;;;;;;;11.45;5.80;;;15.00;60.40;;;;;;6252925;22;20065;-87
2022/03/20 16:30:04;;;;;;;11.50;5.45;;;14.70;60.60;;;;;;6267426;22;20746;-88
2022/03/20 16:32:30;;;;;;;10.60;5.78;;;14.50;61.30;;;;;;6273982;22;20003;-88
2022/03/20 16:34:55;;;;;;;11.23;5.80;;;14.40;61.20;;;;;;6246038;22;20000;-87
2022/03/20 16:37:22;;;;;;;10.27;5.75;;;14.30;62.10;;;;;;6246550;22;20022;-88
2022/03/20 16:39:50;;;;;;;11.25;5.70;;;14.40;62.10;;;;;;6247248;22;20007;-88
2022/03/20 16:42:16;;;;;;;8.73;4.88;;;14.30;62.00;;;;;;6246788;22;20449;-87
2022/03/20 16:45:04;;;;;;;10.40;5.70;;;14.20;62.40;;;;;;6270141;22;20015;-88
2022/03/20 16:47:35;;;;;;;10.43;4.72;;;14.10;62.60;;;;;;6273545;22;20003;-89
2022/03/20 16:50:06;;;;;;;11.63;5.70;;;14.00;62.70;;;;;;6246769;22;20008;-88
2022/03/20 16:52:53;;;;;;;9.40;4.57;;;13.90;62.30;;;;;;6275330;22;20004;-87
2022/03/20 16:55:25;;;;;;;8.82;5.15;;;13.80;62.70;;;;;;6247532;22;20065;-88
2022/03/20 16:57:51;;;;;;;;;;;13.70;62.20;;;;;;6247722;22;20004;-88
2022/03/20 17:00:17;;;;;;;10.57;4.70;;;13.60;62.50;;;;;;6246579;22;19922;-87
2022/03/20 17:02:43;;;;;;;9.15;4.72;;;13.60;62.60;;;;;;6246708;22;20000;-88
2022/03/20 17:05:13;;;;;;;9.75;4.55;;;13.40;63.20;;;;;;6247014;22;20099;-88
2022/03/20 17:07:43;;;;;;;13.05;4.95;;;13.40;63.40;;;;;;6246177;22;20006;-88
2022/03/20 17:10:15;;;;;;;11.50;4.88;;;13.30;62.80;;;;;;6242731;22;20021;-87
2022/03/20 17:12:41;;;;;;;13.43;5.07;;;13.20;63.10;;;;;;6247587;22;20087;-87
2022/03/20 17:15:10;;;;;;;9.30;4.85;;;13.10;63.20;;;;;;6246643;22;20000;-88
2022/03/20 17:17:36;;;;;;;10.68;4.93;;;13.00;62.60;;;;;;6246492;22;20030;-87
2022/03/20 17:20:02;;;;;;;11.02;5.10;;;12.90;63.50;;;;;;6247676;22;20457;-88
2022/03/20 17:22:28;;;;;;;9.55;4.95;;;12.90;62.70;;;;;;6246859;22;20000;-88
2022/03/20 17:25:06;;;;;;;9.35;4.70;;;12.80;63.10;;;;;;6246686;22;20000;-88
2022/03/20 17:27:34;;;;;;;10.25;4.85;;;12.60;63.50;;;;;;6246699;22;20030;-89
2022/03/20 17:30:00;;;;;;;8.65;4.93;;;12.60;64.20;;;;;;6248157;22;20003;-88
2022/03/20 17:32:30;;;;;;;9.07;4.50;;;12.60;64.60;;;;;;6247729;22;20015;-88
2022/03/20 17:34:57;;;;;;;9.38;4.97;;;12.40;65.00;;;;;;6247611;22;20100;-88
2022/03/20 17:37:27;;;;;;;11.18;4.72;;;12.30;65.30;;;;;;6248337;22;20452;-88
2022/03/20 17:40:09;;;;;;;9.60;4.78;;;12.30;65.50;;;;;;6249086;22;20039;-88
2022/03/20 17:42:35;;;;;;;9.85;4.85;;;12.20;67.00;;;;;;6247312;22;20023;-87
2022/03/20 17:45:03;;;;;;;10.80;4.78;;;12.20;66.60;;;;;;6246501;22;20043;-87
2022/03/20 17:47:31;;;;;;;12.52;5.22;;;12.10;66.40;;;;;;6247259;22;20083;-88
2022/03/20 17:49:58;;;;;;;10.90;4.50;;;12.00;67.20;;;;;;6249668;22;20007;-87
2022/03/20 17:52:28;;;;;;;12.23;5.32;;;12.00;67.30;;;;;;6252897;22;20103;-87
2022/03/20 17:55:10;;;;;;;9.20;5.03;;;11.90;67.50;;;;;;6274119;22;20003;-89
2022/03/20 17:57:36;;;;;;;10.02;5.10;;;11.80;67.80;;;;;;6246607;22;20003;-89
2022/03/20 18:00:05;;;;;;;11.60;5.68;;;11.70;68.70;;;;;;6247369;22;20090;-89
2022/03/20 18:07:59;;;;;;;13.43;6.47;;;11.30;69.40;;;;;;6273529;22;20053;-89
2022/03/20 18:10:28;;;;;;;13.05;6.45;;;11.40;70.00;;;;;;6243444;22;20007;-89
2022/03/20 18:13:02;;;;;;;10.18;5.47;;;11.30;70.50;;;;;;6247311;22;20062;-89
2022/03/20 18:15:37;;;;;;;11.55;5.72;;;11.30;70.20;;;;;;6246371;22;20060;-89
2022/03/20 18:18:09;;;;;;;10.80;5.32;;;11.30;69.90;;;;;;6247490;22;20052;-87
2022/03/20 18:20:39;;;;;;;13.15;5.57;;;11.30;70.60;;;;;;6246563;22;20371;-88
2022/03/20 18:23:08;;;;;;;12.73;5.57;;;11.20;69.70;;;;;;6248225;22;20090;-89
2022/03/20 18:25:39;;;;;;;9.90;4.95;;;11.30;71.00;;;;;;6245833;22;20019;-88
2022/03/20 18:28:13;;;;;;;9.00;4.85;;;11.20;71.00;;;;;;6273721;22;20011;-88
2022/03/20 18:30:40;;;;;;;11.43;5.55;;;11.20;71.10;;;;;;6275102;22;20010;-89
2022/03/20 18:33:07;;;;;;;10.70;5.60;;;11.10;71.30;;;;;;6249887;22;20027;-89
2022/03/20 18:35:34;;;;;;;10.82;6.07;;;11.10;71.00;;;;;;6249028;22;20018;-88
2022/03/20 18:38:05;;;;;;;11.20;5.82;;;11.00;71.70;;;;;;6251320;22;20011;-88
2022/03/20 18:40:32;;;;;;;10.85;5.30;;;10.90;71.90;;;;;;6249919;22;20064;-88
2022/03/20 18:43:00;;;;;;;10.52;5.32;;;10.90;71.20;;;;;;6278139;22;20008;-89
2022/03/20 18:45:30;;;;;;;9.60;4.97;;;10.90;71.80;;;;;;6249656;22;20004;-88
2022/03/20 18:48:03;;;;;;;9.93;5.25;;;10.80;72.20;;;;;;6248802;22;20018;-88
2022/03/20 18:50:51;;;;;;;9.23;4.90;;;10.70;72.60;;;;;;6249616;22;20015;-88
2022/03/20 18:53:18;;;;;;;10.93;5.30;;;10.70;72.60;;;;;;6276636;22;20416;-87
2022/03/20 18:55:44;;;;;;;7.78;4.38;;;10.80;71.90;;;;;;6249914;22;20469;-87
2022/03/20 18:58:17;;;;;;;10.10;5.43;;;10.60;72.10;;;;;;6277653;22;19999;-90
2022/03/20 19:00:46;;;;;;;11.25;4.78;;;10.50;72.60;;;;;;6250759;22;20019;-88
2022/03/20 19:03:13;;;;;;;9.27;4.75;;;10.50;73.20;;;;;;6250145;22;20039;-88
2022/03/20 19:05:46;;;;;;;10.40;5.50;;;10.50;72.70;;;;;;6250404;22;20077;-88
2022/03/20 19:08:13;;;;;;;8.25;4.32;;;10.50;72.60;;;;;;6249701;22;20033;-87
2022/03/20 19:10:39;;;;;;;10.38;4.40;;;10.40;72.80;;;;;;6247532;22;20011;-88
2022/03/20 19:13:07;;;;;;;10.15;4.45;;;10.30;72.00;;;;;;6250607;22;20000;-87
2022/03/20 19:15:58;;;;;;;7.60;4.30;;;10.30;72.50;;;;;;6248852;22;20018;-89
2022/03/20 19:18:33;;;;;;;9.68;5.00;;;10.30;73.00;;;;;;6249047;22;20158;-88
2022/03/20 19:20:59;;;;;;;11.10;5.57;;;10.20;73.00;;;;;;6270197;22;20057;-88
2022/03/20 19:23:25;;;;;;;11.30;5.57;;;10.10;73.20;;;;;;6248202;22;20011;-87
2022/03/20 19:25:59;;;;;;;12.95;5.38;;;10.10;73.20;;;;;;6249097;22;20417;-87
2022/03/20 19:28:25;;;;;;;10.63;4.90;;;10.10;73.50;;;;;;6249279;22;20004;-88
2022/03/20 19:30:53;;;;;;;9.63;5.00;;;10.00;73.50;;;;;;6249207;22;20086;-88
2022/03/20 19:33:19;;;;;;;8.98;4.88;;;10.00;73.60;;;;;;6274262;22;20000;-88
2022/03/20 19:41:16;;;;;;;10.40;4.82;;;9.80;74.00;;;;;;6275476;22;20019;-88
2022/03/20 19:43:42;;;;;;;9.20;4.47;;;9.80;73.80;;;;;;6275647;22;20011;-88
2022/03/20 19:46:08;;;;;;;12.40;4.88;;;9.80;73.80;;;;;;6270269;22;20008;-89
2022/03/20 19:48:53;;;;;;;9.73;4.57;;;9.70;74.60;;;;;;6249076;22;20006;-89
2022/03/20 19:51:22;;;;;;;11.93;4.65;;;9.70;74.50;;;;;;6249804;22;20346;-87
2022/03/20 19:53:48;;;;;;;10.35;5.00;;;9.70;74.30;;;;;;6248322;22;20027;-88
2022/03/20 19:56:15;;;;;;;10.43;4.70;;;9.60;74.50;;;;;;6243586;22;20000;-88
2022/03/20 19:58:50;;;;;;;11.98;4.65;;;9.50;74.40;;;;;;6251080;22;20457;-88
2022/03/20 20:01:16;;;;;;;10.15;4.43;;;9.50;74.50;;;;;;6278831;22;20008;-87
2022/03/20 20:03:45;;;;;;;9.43;4.15;;;9.40;75.00;;;;;;6275748;22;20006;-88
2022/03/20 20:06:17;;;;;;;10.82;5.03;;;9.50;74.60;;;;;;6250815;22;20004;-88